sensor_id;sensor_type;location;lat;lon;timestamp;P1;durP1;ratioP1;P2;durP2;ratioP2
44764;SDS011;30484;52.382;5.260;2023-07-20T00:01:08;3.20;;;1.30;;
44764;SDS011;30484;52.382;5.260;2023-07-20T00:03:37;2.22;;;1.27;;
44764;SDS011;30484;52.382;5.260;2023-07-20T00:06:06;2.47;;;1.35;;
44764;SDS011;30484;52.382;5.260;2023-07-20T00:08:35;2.65;;;1.30;;
44764;SDS011;30484;52.382;5.260;2023-07-20T00:11:03;2.38;;;1.42;;
44764;SDS011;30484;52.382;5.260;2023-07-20T00:13:32;2.15;;;1.40;;
44764;SDS011;30484;52.382;5.260;2023-07-20T00:16:02;2.83;;;1.17;;
44764;SDS011;30484;52.382;5.260;2023-07-20T00:18:31;2.88;;;1.45;;
44764;SDS011;30484;52.382;5.260;2023-07-20T00:21:00;1.58;;;1.10;;
44764;SDS011;30484;52.382;5.260;2023-07-20T00:23:28;3.25;;;1.50;;
44764;SDS011;30484;52.382;5.260;2023-07-20T00:26:01;2.08;;;1.30;;
44764;SDS011;30484;52.382;5.260;2023-07-20T00:28:30;3.35;;;1.30;;
44764;SDS011;30484;52.382;5.260;2023-07-20T00:30:59;3.70;;;1.73;;
44764;SDS011;30484;52.382;5.260;2023-07-20T00:33:29;2.05;;;1.30;;
44764;SDS011;30484;52.382;5.260;2023-07-20T00:35:58;3.53;;;1.38;;
44764;SDS011;30484;52.382;5.260;2023-07-20T00:38:26;3.20;;;1.40;;
44764;SDS011;30484;52.382;5.260;2023-07-20T00:40:55;4.95;;;1.60;;
44764;SDS011;30484;52.382;5.260;2023-07-20T00:43:23;2.67;;;1.50;;
44764;SDS011;30484;52.382;5.260;2023-07-20T00:45:52;3.05;;;1.67;;
44764;SDS011;30484;52.382;5.260;2023-07-20T00:48:20;4.20;;;1.90;;
44764;SDS011;30484;52.382;5.260;2023-07-20T00:50:51;8.05;;;1.63;;
44764;SDS011;30484;52.382;5.260;2023-07-20T00:53:20;1.98;;;1.38;;
44764;SDS011;30484;52.382;5.260;2023-07-20T00:55:49;3.83;;;1.48;;
44764;SDS011;30484;52.382;5.260;2023-07-20T00:58:18;4.43;;;1.60;;
44764;SDS011;30484;52.382;5.260;2023-07-20T01:00:46;5.32;;;1.38;;
44764;SDS011;30484;52.382;5.260;2023-07-20T01:03:15;7.50;;;1.75;;
44764;SDS011;30484;52.382;5.260;2023-07-20T01:05:46;4.00;;;1.70;;
44764;SDS011;30484;52.382;5.260;2023-07-20T01:08:24;2.42;;;1.50;;
44764;SDS011;30484;52.382;5.260;2023-07-20T01:11:02;3.85;;;1.30;;
44764;SDS011;30484;52.382;5.260;2023-07-20T01:13:40;3.53;;;1.40;;
44764;SDS011;30484;52.382;5.260;2023-07-20T01:16:13;4.10;;;1.65;;
44764;SDS011;30484;52.382;5.260;2023-07-20T01:18:42;3.90;;;1.60;;
44764;SDS011;30484;52.382;5.260;2023-07-20T01:21:13;4.50;;;1.88;;
44764;SDS011;30484;52.382;5.260;2023-07-20T01:24:16;3.47;;;1.80;;
44764;SDS011;30484;52.382;5.260;2023-07-20T01:27:30;2.95;;;1.90;;
44764;SDS011;30484;52.382;5.260;2023-07-20T01:30:45;3.70;;;1.80;;
44764;SDS011;30484;52.382;5.260;2023-07-20T01:33:22;10.27;;;5.47;;
44764;SDS011;30484;52.382;5.260;2023-07-20T01:35:53;7.20;;;2.50;;
44764;SDS011;30484;52.382;5.260;2023-07-20T01:38:25;4.22;;;2.50;;
44764;SDS011;30484;52.382;5.260;2023-07-20T01:40:54;9.60;;;2.50;;
44764;SDS011;30484;52.382;5.260;2023-07-20T01:43:27;3.75;;;1.92;;
44764;SDS011;30484;52.382;5.260;2023-07-20T01:45:55;4.78;;;1.92;;
44764;SDS011;30484;52.382;5.260;2023-07-20T01:48:25;8.18;;;2.42;;
44764;SDS011;30484;52.382;5.260;2023-07-20T01:50:54;2.83;;;2.05;;
44764;SDS011;30484;52.382;5.260;2023-07-20T01:53:23;5.65;;;2.08;;
44764;SDS011;30484;52.382;5.260;2023-07-20T01:55:52;3.28;;;1.98;;
44764;SDS011;30484;52.382;5.260;2023-07-20T01:58:21;6.30;;;2.75;;
44764;SDS011;30484;52.382;5.260;2023-07-20T02:00:50;7.82;;;4.82;;
44764;SDS011;30484;52.382;5.260;2023-07-20T02:03:19;6.85;;;3.50;;
44764;SDS011;30484;52.382;5.260;2023-07-20T02:05:51;3.22;;;2.05;;
44764;SDS011;30484;52.382;5.260;2023-07-20T02:08:20;5.07;;;2.25;;
44764;SDS011;30484;52.382;5.260;2023-07-20T02:10:50;4.45;;;1.80;;
44764;SDS011;30484;52.382;5.260;2023-07-20T02:13:19;4.80;;;1.90;;
44764;SDS011;30484;52.382;5.260;2023-07-20T02:15:48;2.92;;;1.75;;
44764;SDS011;30484;52.382;5.260;2023-07-20T02:18:17;4.82;;;1.77;;
44764;SDS011;30484;52.382;5.260;2023-07-20T02:20:46;9.57;;;1.77;;
44764;SDS011;30484;52.382;5.260;2023-07-20T02:23:17;4.22;;;1.55;;
44764;SDS011;30484;52.382;5.260;2023-07-20T02:25:46;3.95;;;1.40;;
44764;SDS011;30484;52.382;5.260;2023-07-20T02:28:15;5.43;;;1.73;;
44764;SDS011;30484;52.382;5.260;2023-07-20T02:30:44;6.75;;;1.40;;
44764;SDS011;30484;52.382;5.260;2023-07-20T02:33:15;2.95;;;1.35;;
44764;SDS011;30484;52.382;5.260;2023-07-20T02:35:44;2.72;;;1.45;;
44764;SDS011;30484;52.382;5.260;2023-07-20T02:38:13;2.50;;;1.13;;
44764;SDS011;30484;52.382;5.260;2023-07-20T02:40:44;2.63;;;1.30;;
44764;SDS011;30484;52.382;5.260;2023-07-20T02:43:13;2.10;;;1.10;;
44764;SDS011;30484;52.382;5.260;2023-07-20T02:45:42;2.97;;;1.20;;
44764;SDS011;30484;52.382;5.260;2023-07-20T02:48:11;1.80;;;1.10;;
44764;SDS011;30484;52.382;5.260;2023-07-20T02:50:40;2.72;;;1.10;;
44764;SDS011;30484;52.382;5.260;2023-07-20T02:53:10;3.65;;;1.20;;
44764;SDS011;30484;52.382;5.260;2023-07-20T02:55:39;2.83;;;1.20;;
44764;SDS011;30484;52.382;5.260;2023-07-20T02:58:09;3.25;;;1.17;;
44764;SDS011;30484;52.382;5.260;2023-07-20T03:00:38;2.72;;;1.20;;
44764;SDS011;30484;52.382;5.260;2023-07-20T03:03:07;3.65;;;1.10;;
44764;SDS011;30484;52.382;5.260;2023-07-20T03:05:36;2.58;;;1.40;;
44764;SDS011;30484;52.382;5.260;2023-07-20T03:08:08;1.27;;;0.93;;
44764;SDS011;30484;52.382;5.260;2023-07-20T03:10:40;3.58;;;1.40;;
44764;SDS011;30484;52.382;5.260;2023-07-20T03:13:13;3.13;;;1.20;;
44764;SDS011;30484;52.382;5.260;2023-07-20T03:15:42;3.30;;;0.90;;
44764;SDS011;30484;52.382;5.260;2023-07-20T03:18:11;2.97;;;1.00;;
44764;SDS011;30484;52.382;5.260;2023-07-20T03:20:40;3.30;;;1.38;;
44764;SDS011;30484;52.382;5.260;2023-07-20T03:23:12;1.88;;;1.30;;
44764;SDS011;30484;52.382;5.260;2023-07-20T03:25:42;3.17;;;1.40;;
44764;SDS011;30484;52.382;5.260;2023-07-20T03:28:12;1.85;;;1.20;;
44764;SDS011;30484;52.382;5.260;2023-07-20T03:30:42;5.00;;;1.23;;
44764;SDS011;30484;52.382;5.260;2023-07-20T03:33:11;3.55;;;1.10;;
44764;SDS011;30484;52.382;5.260;2023-07-20T03:35:40;2.22;;;1.17;;
44764;SDS011;30484;52.382;5.260;2023-07-20T03:38:11;1.67;;;1.20;;
44764;SDS011;30484;52.382;5.260;2023-07-20T03:40:45;5.28;;;1.30;;
44764;SDS011;30484;52.382;5.260;2023-07-20T03:43:20;6.32;;;1.67;;
44764;SDS011;30484;52.382;5.260;2023-07-20T03:45:50;4.82;;;1.20;;
44764;SDS011;30484;52.382;5.260;2023-07-20T03:48:20;3.78;;;1.40;;
44764;SDS011;30484;52.382;5.260;2023-07-20T03:50:53;5.07;;;1.25;;
44764;SDS011;30484;52.382;5.260;2023-07-20T03:53:28;1.70;;;1.10;;
44764;SDS011;30484;52.382;5.260;2023-07-20T03:55:58;3.45;;;1.30;;
44764;SDS011;30484;52.382;5.260;2023-07-20T03:58:33;3.85;;;1.50;;
44764;SDS011;30484;52.382;5.260;2023-07-20T04:01:03;2.35;;;1.42;;
44764;SDS011;30484;52.382;5.260;2023-07-20T04:03:34;5.07;;;1.60;;
44764;SDS011;30484;52.382;5.260;2023-07-20T04:06:04;2.47;;;1.55;;
44764;SDS011;30484;52.382;5.260;2023-07-20T04:08:35;3.15;;;1.65;;
44764;SDS011;30484;52.382;5.260;2023-07-20T04:11:05;2.38;;;1.20;;
44764;SDS011;30484;52.382;5.260;2023-07-20T04:13:35;4.82;;;1.40;;
44764;SDS011;30484;52.382;5.260;2023-07-20T04:16:05;1.55;;;1.33;;
44764;SDS011;30484;52.382;5.260;2023-07-20T04:18:34;4.63;;;1.50;;
44764;SDS011;30484;52.382;5.260;2023-07-20T04:21:04;5.05;;;1.48;;
44764;SDS011;30484;52.382;5.260;2023-07-20T04:23:37;1.80;;;1.20;;
44764;SDS011;30484;52.382;5.260;2023-07-20T04:26:07;3.58;;;1.40;;
44764;SDS011;30484;52.382;5.260;2023-07-20T04:28:41;2.05;;;1.40;;
44764;SDS011;30484;52.382;5.260;2023-07-20T04:31:11;3.08;;;1.50;;
44764;SDS011;30484;52.382;5.260;2023-07-20T04:33:41;4.32;;;1.52;;
44764;SDS011;30484;52.382;5.260;2023-07-20T04:36:12;5.20;;;1.50;;
44764;SDS011;30484;52.382;5.260;2023-07-20T04:38:43;2.75;;;1.60;;
44764;SDS011;30484;52.382;5.260;2023-07-20T04:41:13;2.80;;;1.60;;
44764;SDS011;30484;52.382;5.260;2023-07-20T04:43:44;4.07;;;1.83;;
44764;SDS011;30484;52.382;5.260;2023-07-20T04:46:19;5.82;;;2.30;;
44764;SDS011;30484;52.382;5.260;2023-07-20T04:48:51;5.78;;;1.98;;
44764;SDS011;30484;52.382;5.260;2023-07-20T04:51:20;7.85;;;1.98;;
44764;SDS011;30484;52.382;5.260;2023-07-20T04:53:49;5.95;;;2.13;;
44764;SDS011;30484;52.382;5.260;2023-07-20T04:56:19;2.17;;;1.80;;
44764;SDS011;30484;52.382;5.260;2023-07-20T04:58:51;6.22;;;2.08;;
44764;SDS011;30484;52.382;5.260;2023-07-20T05:01:23;2.90;;;2.00;;
44764;SDS011;30484;52.382;5.260;2023-07-20T05:03:56;7.82;;;1.92;;
44764;SDS011;30484;52.382;5.260;2023-07-20T05:06:25;3.65;;;2.00;;
44764;SDS011;30484;52.382;5.260;2023-07-20T05:08:56;3.45;;;1.92;;
44764;SDS011;30484;52.382;5.260;2023-07-20T05:11:27;2.75;;;2.08;;
44764;SDS011;30484;52.382;5.260;2023-07-20T05:13:58;3.63;;;2.40;;
44764;SDS011;30484;52.382;5.260;2023-07-20T05:16:27;4.80;;;2.20;;
44764;SDS011;30484;52.382;5.260;2023-07-20T05:18:56;4.07;;;2.03;;
44764;SDS011;30484;52.382;5.260;2023-07-20T05:21:25;5.45;;;2.17;;
44764;SDS011;30484;52.382;5.260;2023-07-20T05:23:54;4.70;;;2.10;;
44764;SDS011;30484;52.382;5.260;2023-07-20T05:26:23;4.22;;;2.20;;
44764;SDS011;30484;52.382;5.260;2023-07-20T05:28:52;3.58;;;1.98;;
44764;SDS011;30484;52.382;5.260;2023-07-20T05:31:23;3.15;;;1.50;;
44764;SDS011;30484;52.382;5.260;2023-07-20T05:36:29;2.45;;;1.35;;
44764;SDS011;30484;52.382;5.260;2023-07-20T05:38:59;3.97;;;1.30;;
44764;SDS011;30484;52.382;5.260;2023-07-20T05:41:28;4.78;;;2.05;;
44764;SDS011;30484;52.382;5.260;2023-07-20T05:43:57;3.78;;;1.73;;
44764;SDS011;30484;52.382;5.260;2023-07-20T05:46:29;3.40;;;1.20;;
44764;SDS011;30484;52.382;5.260;2023-07-20T05:49:20;3.45;;;1.23;;
44764;SDS011;30484;52.382;5.260;2023-07-20T05:51:49;2.25;;;0.95;;
44764;SDS011;30484;52.382;5.260;2023-07-20T05:54:21;2.58;;;1.10;;
44764;SDS011;30484;52.382;5.260;2023-07-20T05:56:51;2.33;;;0.98;;
44764;SDS011;30484;52.382;5.260;2023-07-20T05:59:22;4.40;;;1.35;;
44764;SDS011;30484;52.382;5.260;2023-07-20T06:01:54;3.10;;;1.05;;
44764;SDS011;30484;52.382;5.260;2023-07-20T06:04:26;2.58;;;1.02;;
44764;SDS011;30484;52.382;5.260;2023-07-20T06:06:55;3.72;;;0.73;;
44764;SDS011;30484;52.382;5.260;2023-07-20T06:09:24;2.42;;;0.90;;
44764;SDS011;30484;52.382;5.260;2023-07-20T06:11:56;2.97;;;1.05;;
44764;SDS011;30484;52.382;5.260;2023-07-20T06:14:29;4.55;;;0.88;;
44764;SDS011;30484;52.382;5.260;2023-07-20T06:17:00;4.32;;;1.00;;
44764;SDS011;30484;52.382;5.260;2023-07-20T06:19:32;3.08;;;0.90;;
44764;SDS011;30484;52.382;5.260;2023-07-20T06:22:02;3.85;;;1.08;;
44764;SDS011;30484;52.382;5.260;2023-07-20T06:24:32;6.28;;;0.95;;
44764;SDS011;30484;52.382;5.260;2023-07-20T06:27:01;3.42;;;0.90;;
44764;SDS011;30484;52.382;5.260;2023-07-20T06:29:32;1.52;;;0.70;;
44764;SDS011;30484;52.382;5.260;2023-07-20T06:32:03;2.83;;;0.80;;
44764;SDS011;30484;52.382;5.260;2023-07-20T06:34:34;4.10;;;0.80;;
44764;SDS011;30484;52.382;5.260;2023-07-20T06:37:04;3.70;;;0.90;;
44764;SDS011;30484;52.382;5.260;2023-07-20T06:39:34;1.98;;;1.10;;
44764;SDS011;30484;52.382;5.260;2023-07-20T06:42:07;3.97;;;0.80;;
44764;SDS011;30484;52.382;5.260;2023-07-20T06:44:36;3.15;;;0.90;;
44764;SDS011;30484;52.382;5.260;2023-07-20T06:47:06;2.50;;;0.90;;
44764;SDS011;30484;52.382;5.260;2023-07-20T06:49:40;1.25;;;0.70;;
44764;SDS011;30484;52.382;5.260;2023-07-20T06:52:11;2.97;;;0.60;;
44764;SDS011;30484;52.382;5.260;2023-07-20T06:54:39;3.40;;;0.70;;
44764;SDS011;30484;52.382;5.260;2023-07-20T06:57:10;1.38;;;0.70;;
44764;SDS011;30484;52.382;5.260;2023-07-20T06:59:44;2.65;;;0.73;;
44764;SDS011;30484;52.382;5.260;2023-07-20T07:02:15;1.45;;;0.60;;
44764;SDS011;30484;52.382;5.260;2023-07-20T07:04:45;1.45;;;0.70;;
44764;SDS011;30484;52.382;5.260;2023-07-20T07:07:14;3.85;;;0.73;;
44764;SDS011;30484;52.382;5.260;2023-07-20T07:09:54;1.85;;;0.60;;
44764;SDS011;30484;52.382;5.260;2023-07-20T07:12:27;1.90;;;0.50;;
44764;SDS011;30484;52.382;5.260;2023-07-20T07:14:57;0.95;;;0.60;;
44764;SDS011;30484;52.382;5.260;2023-07-20T07:17:27;1.55;;;0.50;;
44764;SDS011;30484;52.382;5.260;2023-07-20T07:20:00;3.72;;;0.82;;
44764;SDS011;30484;52.382;5.260;2023-07-20T07:22:32;1.50;;;0.70;;
44764;SDS011;30484;52.382;5.260;2023-07-20T07:25:09;2.08;;;0.60;;
44764;SDS011;30484;52.382;5.260;2023-07-20T07:27:48;1.70;;;0.50;;
44764;SDS011;30484;52.382;5.260;2023-07-20T07:30:19;1.25;;;0.50;;
44764;SDS011;30484;52.382;5.260;2023-07-20T07:32:51;2.22;;;0.65;;
44764;SDS011;30484;52.382;5.260;2023-07-20T07:38:00;3.05;;;0.70;;
44764;SDS011;30484;52.382;5.260;2023-07-20T07:41:12;1.43;;;0.40;;
44764;SDS011;30484;52.382;5.260;2023-07-20T07:44:03;0.90;;;0.40;;
44764;SDS011;30484;52.382;5.260;2023-07-20T07:46:41;2.33;;;0.70;;
44764;SDS011;30484;52.382;5.260;2023-07-20T07:49:22;1.75;;;0.60;;
44764;SDS011;30484;52.382;5.260;2023-07-20T07:52:07;3.22;;;0.57;;
44764;SDS011;30484;52.382;5.260;2023-07-20T07:55:00;1.70;;;0.60;;
44764;SDS011;30484;52.382;5.260;2023-07-20T07:57:35;3.97;;;0.80;;
44764;SDS011;30484;52.382;5.260;2023-07-20T08:00:23;3.70;;;0.57;;
44764;SDS011;30484;52.382;5.260;2023-07-20T08:02:58;1.50;;;0.55;;
44764;SDS011;30484;52.382;5.260;2023-07-20T08:05:29;0.80;;;0.40;;
44764;SDS011;30484;52.382;5.260;2023-07-20T08:07:59;1.48;;;0.57;;
44764;SDS011;30484;52.382;5.260;2023-07-20T08:10:36;1.75;;;0.80;;
44764;SDS011;30484;52.382;5.260;2023-07-20T08:13:05;2.45;;;0.70;;
44764;SDS011;30484;52.382;5.260;2023-07-20T08:15:36;2.53;;;0.63;;
44764;SDS011;30484;52.382;5.260;2023-07-20T08:18:07;3.28;;;0.75;;
44764;SDS011;30484;52.382;5.260;2023-07-20T08:20:41;3.22;;;0.80;;
44764;SDS011;30484;52.382;5.260;2023-07-20T08:23:16;3.47;;;1.02;;
44764;SDS011;30484;52.382;5.260;2023-07-20T08:25:48;1.85;;;0.60;;
44764;SDS011;30484;52.382;5.260;2023-07-20T08:28:17;3.45;;;0.45;;
44764;SDS011;30484;52.382;5.260;2023-07-20T08:30:52;2.28;;;0.65;;
44764;SDS011;30484;52.382;5.260;2023-07-20T08:33:21;1.95;;;0.55;;
44764;SDS011;30484;52.382;5.260;2023-07-20T08:35:55;0.63;;;0.50;;
44764;SDS011;30484;52.382;5.260;2023-07-20T08:38:25;1.80;;;0.55;;
44764;SDS011;30484;52.382;5.260;2023-07-20T08:41:10;1.38;;;0.60;;
44764;SDS011;30484;52.382;5.260;2023-07-20T08:43:45;1.52;;;0.60;;
44764;SDS011;30484;52.382;5.260;2023-07-20T08:46:18;0.55;;;0.40;;
44764;SDS011;30484;52.382;5.260;2023-07-20T08:49:05;0.98;;;0.47;;
44764;SDS011;30484;52.382;5.260;2023-07-20T08:51:37;2.10;;;0.40;;
44764;SDS011;30484;52.382;5.260;2023-07-20T08:54:12;1.05;;;0.50;;
44764;SDS011;30484;52.382;5.260;2023-07-20T08:56:46;1.70;;;0.55;;
44764;SDS011;30484;52.382;5.260;2023-07-20T08:59:20;2.10;;;0.50;;
44764;SDS011;30484;52.382;5.260;2023-07-20T09:01:51;3.55;;;0.70;;
44764;SDS011;30484;52.382;5.260;2023-07-20T09:04:21;1.83;;;0.70;;
44764;SDS011;30484;52.382;5.260;2023-07-20T09:06:55;1.40;;;0.60;;
44764;SDS011;30484;52.382;5.260;2023-07-20T09:09:26;1.08;;;0.65;;
44764;SDS011;30484;52.382;5.260;2023-07-20T09:11:55;1.42;;;0.63;;
44764;SDS011;30484;52.382;5.260;2023-07-20T09:14:24;4.20;;;0.73;;
44764;SDS011;30484;52.382;5.260;2023-07-20T09:16:54;1.67;;;0.60;;
44764;SDS011;30484;52.382;5.260;2023-07-20T09:19:24;1.45;;;0.50;;
44764;SDS011;30484;52.382;5.260;2023-07-20T09:21:55;1.30;;;0.50;;
44764;SDS011;30484;52.382;5.260;2023-07-20T09:24:24;2.28;;;0.60;;
44764;SDS011;30484;52.382;5.260;2023-07-20T09:26:58;3.13;;;0.80;;
44764;SDS011;30484;52.382;5.260;2023-07-20T09:29:47;1.23;;;0.50;;
44764;SDS011;30484;52.382;5.260;2023-07-20T09:32:20;1.23;;;0.63;;
44764;SDS011;30484;52.382;5.260;2023-07-20T09:34:51;1.83;;;0.57;;
44764;SDS011;30484;52.382;5.260;2023-07-20T09:37:23;0.47;;;0.30;;
44764;SDS011;30484;52.382;5.260;2023-07-20T09:39:53;1.55;;;0.60;;
44764;SDS011;30484;52.382;5.260;2023-07-20T09:42:30;1.75;;;0.70;;
44764;SDS011;30484;52.382;5.260;2023-07-20T09:45:03;1.02;;;0.50;;
44764;SDS011;30484;52.382;5.260;2023-07-20T09:47:41;1.60;;;0.57;;
44764;SDS011;30484;52.382;5.260;2023-07-20T09:50:32;0.80;;;0.50;;
44764;SDS011;30484;52.382;5.260;2023-07-20T09:53:11;1.15;;;0.45;;
44764;SDS011;30484;52.382;5.260;2023-07-20T09:55:41;2.15;;;0.40;;
44764;SDS011;30484;52.382;5.260;2023-07-20T09:58:13;2.00;;;0.50;;
44764;SDS011;30484;52.382;5.260;2023-07-20T10:00:43;1.48;;;0.50;;
44764;SDS011;30484;52.382;5.260;2023-07-20T10:03:25;1.45;;;0.65;;
44764;SDS011;30484;52.382;5.260;2023-07-20T10:06:02;2.05;;;0.60;;
44764;SDS011;30484;52.382;5.260;2023-07-20T10:08:38;1.75;;;0.70;;
44764;SDS011;30484;52.382;5.260;2023-07-20T10:11:12;1.70;;;0.60;;
44764;SDS011;30484;52.382;5.260;2023-07-20T10:13:44;3.17;;;0.80;;
44764;SDS011;30484;52.382;5.260;2023-07-20T10:16:20;4.00;;;0.50;;
44764;SDS011;30484;52.382;5.260;2023-07-20T10:19:02;1.40;;;0.50;;
44764;SDS011;30484;52.382;5.260;2023-07-20T10:21:40;2.08;;;0.60;;
44764;SDS011;30484;52.382;5.260;2023-07-20T10:24:23;1.45;;;0.60;;
44764;SDS011;30484;52.382;5.260;2023-07-20T10:26:53;1.83;;;0.70;;
44764;SDS011;30484;52.382;5.260;2023-07-20T10:29:23;2.92;;;0.70;;
44764;SDS011;30484;52.382;5.260;2023-07-20T10:31:55;1.70;;;0.57;;
44764;SDS011;30484;52.382;5.260;2023-07-20T10:34:25;1.85;;;0.60;;
44764;SDS011;30484;52.382;5.260;2023-07-20T10:36:54;1.83;;;0.60;;
44764;SDS011;30484;52.382;5.260;2023-07-20T10:39:26;1.77;;;0.65;;
44764;SDS011;30484;52.382;5.260;2023-07-20T10:42:02;3.67;;;1.00;;
44764;SDS011;30484;52.382;5.260;2023-07-20T10:44:34;3.05;;;1.02;;
44764;SDS011;30484;52.382;5.260;2023-07-20T10:47:08;1.42;;;0.70;;
44764;SDS011;30484;52.382;5.260;2023-07-20T10:52:26;3.72;;;0.90;;
44764;SDS011;30484;52.382;5.260;2023-07-20T10:55:11;1.88;;;0.70;;
44764;SDS011;30484;52.382;5.260;2023-07-20T10:57:44;1.08;;;0.70;;
44764;SDS011;30484;52.382;5.260;2023-07-20T11:00:55;3.67;;;1.02;;
44764;SDS011;30484;52.382;5.260;2023-07-20T11:03:30;2.20;;;1.30;;
44764;SDS011;30484;52.382;5.260;2023-07-20T11:06:31;2.22;;;0.80;;
44764;SDS011;30484;52.382;5.260;2023-07-20T11:09:05;2.47;;;1.00;;
44764;SDS011;30484;52.382;5.260;2023-07-20T11:11:46;2.25;;;1.13;;
44764;SDS011;30484;52.382;5.260;2023-07-20T11:14:22;2.13;;;1.08;;
44764;SDS011;30484;52.382;5.260;2023-07-20T11:16:53;2.20;;;1.20;;
44764;SDS011;30484;52.382;5.260;2023-07-20T11:19:23;1.52;;;1.00;;
44764;SDS011;30484;52.382;5.260;2023-07-20T11:21:57;2.13;;;1.02;;
44764;SDS011;30484;52.382;5.260;2023-07-20T11:24:30;2.28;;;1.10;;
44764;SDS011;30484;52.382;5.260;2023-07-20T11:27:01;1.67;;;0.85;;
44764;SDS011;30484;52.382;5.260;2023-07-20T11:29:30;3.13;;;1.00;;
44764;SDS011;30484;52.382;5.260;2023-07-20T11:32:00;1.58;;;1.00;;
44764;SDS011;30484;52.382;5.260;2023-07-20T11:34:32;2.50;;;0.88;;
44764;SDS011;30484;52.382;5.260;2023-07-20T11:37:05;4.75;;;0.90;;
44764;SDS011;30484;52.382;5.260;2023-07-20T11:39:36;2.75;;;1.08;;
44764;SDS011;30484;52.382;5.260;2023-07-20T11:42:08;12.25;;;1.52;;
44764;SDS011;30484;52.382;5.260;2023-07-20T11:44:36;4.35;;;1.00;;
44764;SDS011;30484;52.382;5.260;2023-07-20T11:47:07;2.65;;;0.80;;
44764;SDS011;30484;52.382;5.260;2023-07-20T11:49:37;4.55;;;1.20;;
44764;SDS011;30484;52.382;5.260;2023-07-20T11:52:10;2.35;;;1.02;;
44764;SDS011;30484;52.382;5.260;2023-07-20T11:54:43;5.55;;;0.90;;
44764;SDS011;30484;52.382;5.260;2023-07-20T11:57:17;4.75;;;1.33;;
44764;SDS011;30484;52.382;5.260;2023-07-20T11:59:52;3.13;;;1.10;;
44764;SDS011;30484;52.382;5.260;2023-07-20T12:02:25;3.38;;;0.88;;
44764;SDS011;30484;52.382;5.260;2023-07-20T12:04:56;2.03;;;0.95;;
44764;SDS011;30484;52.382;5.260;2023-07-20T12:07:26;1.27;;;0.68;;
44764;SDS011;30484;52.382;5.260;2023-07-20T12:10:04;2.47;;;0.95;;
44764;SDS011;30484;52.382;5.260;2023-07-20T12:12:38;3.42;;;1.10;;
44764;SDS011;30484;52.382;5.260;2023-07-20T12:15:15;6.65;;;1.10;;
44764;SDS011;30484;52.382;5.260;2023-07-20T12:17:45;5.88;;;1.30;;
44764;SDS011;30484;52.382;5.260;2023-07-20T12:20:27;3.63;;;1.13;;
44764;SDS011;30484;52.382;5.260;2023-07-20T12:23:00;3.22;;;0.95;;
44764;SDS011;30484;52.382;5.260;2023-07-20T12:25:32;3.90;;;0.98;;
44764;SDS011;30484;52.382;5.260;2023-07-20T12:28:16;17.88;;;2.50;;
44764;SDS011;30484;52.382;5.260;2023-07-20T12:30:48;10.63;;;1.70;;
44764;SDS011;30484;52.382;5.260;2023-07-20T12:33:23;7.70;;;1.25;;
44764;SDS011;30484;52.382;5.260;2023-07-20T12:35:52;2.63;;;0.90;;
44764;SDS011;30484;52.382;5.260;2023-07-20T12:38:23;3.35;;;0.80;;
44764;SDS011;30484;52.382;5.260;2023-07-20T12:40:57;4.20;;;1.00;;
44764;SDS011;30484;52.382;5.260;2023-07-20T12:43:29;1.05;;;0.75;;
44764;SDS011;30484;52.382;5.260;2023-07-20T12:46:02;1.73;;;0.83;;
44764;SDS011;30484;52.382;5.260;2023-07-20T12:48:33;3.70;;;1.05;;
44764;SDS011;30484;52.382;5.260;2023-07-20T12:51:07;1.95;;;0.80;;
44764;SDS011;30484;52.382;5.260;2023-07-20T12:53:45;8.75;;;1.05;;
44764;SDS011;30484;52.382;5.260;2023-07-20T12:56:18;2.47;;;1.00;;
44764;SDS011;30484;52.382;5.260;2023-07-20T12:58:54;2.30;;;1.02;;
44764;SDS011;30484;52.382;5.260;2023-07-20T13:01:32;1.10;;;0.60;;
44764;SDS011;30484;52.382;5.260;2023-07-20T13:04:04;2.58;;;0.80;;
44764;SDS011;30484;52.382;5.260;2023-07-20T13:06:40;1.73;;;0.98;;
44764;SDS011;30484;52.382;5.260;2023-07-20T13:09:16;2.00;;;1.05;;
44764;SDS011;30484;52.382;5.260;2023-07-20T13:11:45;1.83;;;0.77;;
44764;SDS011;30484;52.382;5.260;2023-07-20T13:14:16;1.40;;;0.85;;
44764;SDS011;30484;52.382;5.260;2023-07-20T13:16:45;4.10;;;0.80;;
44764;SDS011;30484;52.382;5.260;2023-07-20T13:19:16;5.25;;;0.90;;
44764;SDS011;30484;52.382;5.260;2023-07-20T13:21:48;2.72;;;0.95;;
44764;SDS011;30484;52.382;5.260;2023-07-20T13:24:20;2.97;;;1.00;;
44764;SDS011;30484;52.382;5.260;2023-07-20T13:26:51;1.48;;;0.70;;
44764;SDS011;30484;52.382;5.260;2023-07-20T13:29:22;3.75;;;0.98;;
44764;SDS011;30484;52.382;5.260;2023-07-20T13:31:52;4.35;;;1.10;;
44764;SDS011;30484;52.382;5.260;2023-07-20T13:34:21;5.30;;;0.98;;
44764;SDS011;30484;52.382;5.260;2023-07-20T13:37:00;5.45;;;1.00;;
44764;SDS011;30484;52.382;5.260;2023-07-20T13:39:30;1.95;;;0.73;;
44764;SDS011;30484;52.382;5.260;2023-07-20T13:41:58;2.85;;;0.98;;
44764;SDS011;30484;52.382;5.260;2023-07-20T13:44:32;2.67;;;1.00;;
44764;SDS011;30484;52.382;5.260;2023-07-20T13:47:01;1.67;;;1.00;;
44764;SDS011;30484;52.382;5.260;2023-07-20T13:49:34;2.55;;;0.90;;
44764;SDS011;30484;52.382;5.260;2023-07-20T13:52:13;3.53;;;0.80;;
44764;SDS011;30484;52.382;5.260;2023-07-20T13:54:45;5.97;;;1.02;;
44764;SDS011;30484;52.382;5.260;2023-07-20T13:57:18;1.83;;;0.90;;
44764;SDS011;30484;52.382;5.260;2023-07-20T13:59:52;2.00;;;0.98;;
44764;SDS011;30484;52.382;5.260;2023-07-20T14:02:21;2.90;;;1.00;;
44764;SDS011;30484;52.382;5.260;2023-07-20T14:04:53;2.33;;;0.88;;
44764;SDS011;30484;52.382;5.260;2023-07-20T14:07:25;3.15;;;0.70;;
44764;SDS011;30484;52.382;5.260;2023-07-20T14:09:56;1.48;;;0.85;;
44764;SDS011;30484;52.382;5.260;2023-07-20T14:12:32;2.05;;;0.85;;
44764;SDS011;30484;52.382;5.260;2023-07-20T14:15:48;2.55;;;0.93;;
44764;SDS011;30484;52.382;5.260;2023-07-20T14:18:18;2.25;;;1.02;;
44764;SDS011;30484;52.382;5.260;2023-07-20T14:20:47;2.05;;;0.70;;
44764;SDS011;30484;52.382;5.260;2023-07-20T14:23:16;3.25;;;0.80;;
44764;SDS011;30484;52.382;5.260;2023-07-20T14:25:45;3.05;;;0.88;;
44764;SDS011;30484;52.382;5.260;2023-07-20T14:28:14;2.00;;;0.90;;
44764;SDS011;30484;52.382;5.260;2023-07-20T14:30:43;2.40;;;0.60;;
44764;SDS011;30484;52.382;5.260;2023-07-20T14:33:14;3.08;;;0.95;;
44764;SDS011;30484;52.382;5.260;2023-07-20T14:36:09;2.13;;;1.00;;
44764;SDS011;30484;52.382;5.260;2023-07-20T14:38:38;1.60;;;0.70;;
44764;SDS011;30484;52.382;5.260;2023-07-20T14:41:08;2.85;;;0.70;;
44764;SDS011;30484;52.382;5.260;2023-07-20T14:43:43;1.42;;;0.80;;
44764;SDS011;30484;52.382;5.260;2023-07-20T14:46:15;1.43;;;0.80;;
44764;SDS011;30484;52.382;5.260;2023-07-20T14:48:51;1.35;;;0.60;;
44764;SDS011;30484;52.382;5.260;2023-07-20T14:51:20;1.38;;;1.02;;
44764;SDS011;30484;52.382;5.260;2023-07-20T14:54:01;2.38;;;0.90;;
44764;SDS011;30484;52.382;5.260;2023-07-20T14:56:31;1.40;;;0.70;;
44764;SDS011;30484;52.382;5.260;2023-07-20T14:59:05;3.45;;;0.88;;
44764;SDS011;30484;52.382;5.260;2023-07-20T15:01:38;1.73;;;0.70;;
44764;SDS011;30484;52.382;5.260;2023-07-20T15:04:11;2.13;;;0.80;;
44764;SDS011;30484;52.382;5.260;2023-07-20T15:06:41;2.72;;;0.82;;
44764;SDS011;30484;52.382;5.260;2023-07-20T15:09:13;1.77;;;0.77;;
44764;SDS011;30484;52.382;5.260;2023-07-20T15:11:47;2.75;;;0.70;;
44764;SDS011;30484;52.382;5.260;2023-07-20T15:14:22;4.43;;;0.80;;
44764;SDS011;30484;52.382;5.260;2023-07-20T15:16:51;1.55;;;0.85;;
44764;SDS011;30484;52.382;5.260;2023-07-20T15:19:23;1.85;;;0.90;;
44764;SDS011;30484;52.382;5.260;2023-07-20T15:21:56;2.08;;;0.77;;
44764;SDS011;30484;52.382;5.260;2023-07-20T15:24:30;1.27;;;0.73;;
44764;SDS011;30484;52.382;5.260;2023-07-20T15:27:02;2.30;;;0.80;;
44764;SDS011;30484;52.382;5.260;2023-07-20T15:29:32;1.63;;;0.80;;